Latest Weather Observations for Perth Airport

IDW60801

Issued at 10:33 am WST Tuesday 22 September 2020 (issued every 10 minutes, with the page automatically refreshed every 10 minutes)

About weather observations | Map of weather stations | Latest weather observations for WA | Other Formats
Station Details ID: 009021 Name: PERTH AIRPORT Lat: -31.93 Lon: 115.98 Height: 15.4 m
Data from the previous 72 hours. | See also: Recent months at Perth Airport
Date/Time
WST
Temp
°C
App
Temp
°C
Dew
Point
°C
Rel
Hum
%
Delta-T
°C
Wind Press
QNH
hPa
Press
MSL
hPa
Rain since
9am
mm
Dir  Spd
km/h
Gust
km/h
Spd
kts
Gust
kts
22/10:13am 16.0 16.4 12.6 80 1.9 NE 2 9 1 5 1024.1 1024.1 0.0
22/10:00am 16.0 15.0 12.4 79 2.0 NNE 9 13 5 7 1024.2 1024.2 0.0
22/09:59am 15.9 14.9 12.3 79 2.0 NNE 9 13 5 7 1024.2 1024.2 0.0
22/09:30am 15.5 13.9 12.8 84 1.5 NNE 13 19 7 10 1024.2 1024.2 0.0
22/09:00am 14.7 13.7 12.4 86 1.2 NE 9 13 5 7 1024.2 1024.2 0.6
22/08:30am 13.4 11.9 12.0 91 0.8 NNE 11 13 6 7 1024.1 1024.1 0.6
22/08:00am 12.3 10.7 11.5 95 0.4 NNE 11 15 6 8 1024.0 1024.0 0.6
22/07:45am 11.8 10.0 11.0 95 0.4 ENE 11 15 6 8 1023.7 1023.7 0.6
22/07:30am 11.8 10.4 11.0 95 0.4 NNE 9 13 5 7 1023.7 1023.7 0.4
22/07:00am 11.2 9.2 10.3 94 0.5 NE 11 13 6 7 1023.2 1023.2 0.2
22/06:44am 11.1 9.9 10.2 94 0.5 NNE 7 9 4 5 1023.1 1023.1 0.2
22/06:30am 10.9 9.2 10.0 94 0.5 NE 9 11 5 6 1023.0 1023.0 0.2
22/06:00am 10.4 8.6 9.5 94 0.4 NE 9 11 5 6 1022.7 1022.7 0.0
22/05:30am 10.4 8.6 9.6 95 0.4 NE 9 9 5 5 1022.4 1022.4 0.0
22/05:00am 10.2 8.4 9.3 94 0.4 NE 9 11 5 6 1022.1 1022.1 0.2
22/04:30am 10.4 9.0 9.6 95 0.4 NNE 7 9 4 5 1021.9 1021.9 0.2
22/04:00am 10.3 8.5 9.5 95 0.4 NNE 9 11 5 6 1021.7 1021.7 0.2
22/03:30am 10.0 8.1 9.2 95 0.4 NNE 9 13 5 7 1021.8 1021.8 0.2
22/03:00am 9.8 7.9 9.0 95 0.4 NNE 9 11 5 6 1021.9 1021.9 0.2
22/02:30am 10.0 8.5 9.2 95 0.4 NNE 7 9 4 5 1021.8 1021.8 0.2
22/02:00am 9.7 7.8 9.1 96 0.3 NE 9 11 5 6 1022.0 1022.0 0.2
22/01:30am 9.5 7.1 8.7 95 0.4 ENE 11 13 6 7 1022.1 1022.1 0.2
22/01:00am 9.2 7.1 8.3 94 0.4 NE 9 9 5 5 1022.3 1022.3 0.2
22/12:30am 10.3 8.9 9.4 94 0.4 NE 7 9 4 5 1022.3 1022.3 0.0
22/12:00am 10.0 8.1 8.9 93 0.5 NNE 9 11 5 6 1022.2 1022.2 0.2
 
Date/Time
WST
Temp
°C
App
Temp
°C
Dew
Point
°C
Rel
Hum
%
Delta-T
°C
Wind Press
QNH
hPa
Press
MSL
hPa
Rain since
9am
mm
Dir  Spd
km/h
Gust
km/h
Spd
kts
Gust
kts
21/11:30pm 10.9 9.5 9.7 92 0.6 NE 7 9 4 5 1022.3 1022.3 0.2
21/11:00pm 11.4 9.8 10.1 92 0.7 NNE 9 13 5 7 1022.4 1022.4 0.2
21/10:30pm 11.9 10.0 10.6 92 0.7 NNE 11 11 6 6 1022.7 1022.7 0.2
21/10:00pm 11.3 9.2 9.9 91 0.7 NNE 11 11 6 6 1023.0 1023.0 0.2
21/09:30pm 12.1 10.2 10.5 90 0.8 NE 11 13 6 7 1023.0 1023.0 0.2
21/09:00pm 11.7 10.6 9.8 88 1.0 NNE 6 7 3 4 1023.3 1023.3 0.0
21/08:30pm 13.1 12.2 10.6 85 1.3 WNW 6 9 3 5 1023.4 1023.4 0.2
21/08:00pm 12.5 10.8 9.9 84 1.3 WNW 9 13 5 7 1023.3 1023.3 0.2
21/07:30pm 13.5 11.2 10.3 81 1.7 WSW 13 22 7 12 1023.1 1023.1 0.2
21/07:00pm 13.8 11.8 8.8 72 2.5 SW 9 15 5 8 1022.6 1022.6 0.2
21/06:30pm 14.3 11.2 8.9 70 2.7 SSW 15 19 8 10 1022.6 1022.6 0.2
21/06:00pm 15.0 9.8 8.9 67 3.1 SW 26 30 14 16 1022.6 1022.6 0.2
21/05:30pm 15.2 12.3 9.6 69 2.9 SW 15 20 8 11 1022.4 1022.4 0.2
21/05:00pm 14.6 11.0 9.8 73 2.5 SSW 19 24 10 13 1022.3 1022.3 0.2
21/04:30pm 16.1 11.9 8.1 59 4.0 SW 20 30 11 16 1022.0 1022.0 0.2
21/04:00pm 16.5 12.2 7.7 56 4.4 WSW 20 30 11 16 1021.8 1021.8 0.2
21/03:30pm 16.9 11.6 6.7 51 5.0 WSW 24 32 13 17 1021.6 1021.6 0.2
21/03:00pm 18.4 12.6 6.3 45 6.0 W 26 35 14 19 1021.5 1021.5 0.2
21/02:30pm 16.9 11.8 6.1 49 5.3 SW 22 30 12 16 1021.6 1021.6 0.2
21/02:00pm 18.0 13.5 6.2 46 5.8 SW 19 33 10 18 1021.7 1021.7 0.2
21/01:30pm 17.0 11.6 6.5 50 5.2 SW 24 33 13 18 1021.9 1021.9 0.2
21/01:00pm 17.5 12.3 5.4 45 5.8 WSW 22 32 12 17 1021.9 1021.9 0.2
21/12:30pm 17.2 12.5 6.1 48 5.4 SSW 20 33 11 18 1021.8 1021.8 0.2
21/12:00pm 17.0 11.6 6.5 50 5.1 SSW 24 33 13 18 1022.2 1022.2 0.2
21/11:30am 17.0 11.5 5.9 48 5.4 SW 24 37 13 20 1022.2 1022.2 0.2
21/11:00am 17.4 12.3 6.0 47 5.5 SW 22 33 12 18 1022.2 1022.2 0.0
21/10:30am 16.4 11.9 6.2 51 5.0 SSW 19 28 10 15 1022.3 1022.3 0.0
21/10:00am 16.6 12.3 7.0 53 4.7 SSW 19 30 10 16 1022.4 1022.4 0.0
21/09:30am 15.9 11.4 6.9 55 4.4 SSW 20 30 11 16 1022.5 1022.5 0.0
21/09:00am 14.7 10.2 7.0 60 3.7 SSW 20 26 11 14 1022.5 1022.5 3.6
21/08:30am 14.0 9.8 7.5 65 3.2 S 19 26 10 14 1022.3 1022.3 3.6
21/08:00am 13.0 9.6 7.5 69 2.7 S 15 19 8 10 1022.1 1022.1 3.6
21/07:30am 12.0 8.2 7.5 74 2.2 S 17 22 9 12 1021.8 1021.8 3.6
21/07:00am 11.4 8.8 7.7 78 1.8 SSW 11 13 6 7 1021.6 1021.6 3.6
21/06:30am 11.2 9.3 7.5 78 1.8 SSW 7 11 4 6 1021.4 1021.4 3.6
21/06:00am 10.8 8.9 7.7 81 1.5 SSW 7 9 4 5 1021.2 1021.2 3.6
21/05:30am 10.7 7.7 7.8 82 1.4 S 13 17 7 9 1020.8 1020.8 3.6
21/05:00am 10.7 8.1 7.8 82 1.4 S 11 15 6 8 1020.5 1020.5 3.6
21/04:30am 10.7 8.6 8.1 84 1.3 S 9 11 5 6 1020.5 1020.5 3.6
21/04:00am 10.7 7.8 8.1 84 1.3 S 13 17 7 9 1020.3 1020.3 3.6
21/03:30am 10.4 8.3 8.2 86 1.1 S 9 11 5 6 1020.1 1020.1 3.6
21/03:00am 10.8 8.3 8.2 84 1.3 S 11 13 6 7 1020.3 1020.3 3.6
21/02:30am 10.7 8.2 8.1 84 1.3 SSE 11 15 6 8 1020.5 1020.5 3.6
21/02:00am 10.6 7.7 8.2 85 1.2 S 13 15 7 8 1020.5 1020.5 3.6
21/01:30am 10.2 7.6 7.8 85 1.2 S 11 13 6 7 1020.5 1020.5 3.6
21/01:00am 10.8 8.1 7.5 80 1.6 S 11 13 6 7 1020.5 1020.5 3.6
21/12:30am 9.9 7.4 6.4 79 1.6 SSW 9 15 5 8 1020.5 1020.5 3.6
21/12:00am 9.0 4.9 6.3 83 1.2 SW 17 24 9 13 1020.6 1020.6 3.6
 
Date/Time
WST
Temp
°C
App
Temp
°C
Dew
Point
°C
Rel
Hum
%
Delta-T
°C
Wind Press
QNH
hPa
Press
MSL
hPa
Rain since
9am
mm
Dir  Spd
km/h
Gust
km/h
Spd
kts
Gust
kts
20/11:30pm 7.7 5.2 4.8 82 1.3 S 7 9 4 5 1020.4 1020.4 3.6
20/11:00pm 9.7 5.4 5.3 74 2.0 SW 17 24 9 13 1020.6 1020.6 3.6
20/10:30pm 9.5 6.1 6.0 79 1.6 SW 13 15 7 8 1020.4 1020.4 3.6
20/10:00pm 9.7 6.8 6.4 80 1.5 SW 11 13 6 7 1020.5 1020.5 3.6
20/09:30pm 9.7 6.5 6.8 82 1.4 SW 13 15 7 8 1020.5 1020.5 3.6
20/09:00pm 10.8 7.6 6.9 77 1.8 SSW 13 15 7 8 1020.4 1020.4 3.6
20/08:30pm 10.7 7.3 7.6 81 1.5 SSW 15 19 8 10 1020.3 1020.3 3.6
20/08:00pm 11.4 7.6 7.7 78 1.8 SSW 17 26 9 14 1020.2 1020.2 3.6
20/07:30pm 11.9 6.9 8.0 77 1.9 SSW 24 33 13 18 1019.9 1019.9 3.6
20/07:00pm 11.8 9.0 8.6 81 1.6 SW 13 17 7 9 1019.4 1019.4 3.6
20/06:30pm 11.9 8.5 9.1 83 1.4 SW 17 22 9 12 1019.0 1019.0 3.6
20/06:00pm 11.9 6.9 9.5 85 1.2 SW 26 37 14 20 1018.9 1018.9 3.6
20/05:42pm 12.5 7.0 9.3 81 1.6 WSW 28 50 15 27 1018.7 1018.7 3.4
20/05:30pm 13.0 9.1 9.3 78 1.9 SW 20 28 11 15 1018.1 1018.1 3.0
20/05:14pm 12.6 6.8 9.6 82 1.5 SW 30 48 16 26 1018.1 1018.1 3.0
20/05:02pm 12.6 5.4 9.2 80 1.7 SW 37 56 20 30 1018.1 1018.1 2.6
20/05:00pm 12.7 5.2 9.3 80 1.7 SW 39 56 21 30 1018.1 1018.1 2.6
20/04:55pm 13.0 5.8 9.1 77 2.0 SW 37 56 20 30 1018.0 1018.0 2.6
20/04:52pm 14.7 7.9 7.7 63 3.5 SW 33 54 18 29 1017.8 1017.8 1.6
20/04:30pm 14.6 7.5 7.9 64 3.3 SW 35 48 19 26 1017.6 1017.6 1.6
20/04:05pm 15.4 7.7 7.2 58 4.0 SW 37 56 20 30 1017.3 1017.3 1.6
20/04:00pm 15.8 7.8 7.3 57 4.2 SW 39 56 21 30 1017.3 1017.3 1.6
20/03:32pm 15.9 8.4 7.9 59 4.0 SW 37 59 20 32 1017.3 1017.3 1.6
20/03:30pm 15.7 8.1 7.5 58 4.1 SW 37 54 20 29 1017.2 1017.2 1.6
20/03:00pm 14.8 7.7 8.1 64 3.3 SW 35 54 19 29 1016.9 1016.9 1.6
20/02:32pm 15.7 9.4 8.9 64 3.5 WSW 32 50 17 27 1016.8 1016.8 1.6
20/02:30pm 15.4 8.4 8.6 64 3.5 SW 35 50 19 27 1016.9 1016.9 1.6
20/02:15pm 15.1 8.7 9.5 69 2.9 SW 33 54 18 29 1016.9 1016.9 1.6
20/02:00pm 13.8 7.1 9.5 75 2.2 SW 35 52 19 28 1016.8 1016.8 1.6
20/01:58pm 13.8 7.0 9.3 74 2.3 SW 35 52 19 28 1016.8 1016.8 1.6
20/01:46pm 13.2 4.7 9.1 76 2.1 WSW 44 70 24 38 1016.6 1016.6 1.6
20/01:31pm 16.8 10.3 8.0 56 4.5 WSW 32 54 17 29 1016.4 1016.4 1.0
20/01:30pm 17.1 10.8 9.0 59 4.2 WSW 32 43 17 23 1016.4 1016.4 1.0
20/01:06pm 15.2 7.9 8.7 65 3.3 SW 37 57 20 31 1016.8 1016.8 1.0
20/01:00pm 14.2 7.2 9.8 75 2.3 WSW 37 54 20 29 1016.9 1016.9 1.0
20/12:32pm 13.1 5.2 9.5 79 1.8 WSW 41 59 22 32 1017.0 1017.0 1.0
20/12:30pm 12.9 4.6 9.5 80 1.7 WSW 43 59 23 32 1017.1 1017.1 1.0
20/12:25pm 14.1 6.8 8.9 71 2.6 WSW 37 59 20 32 1017.0 1017.0 0.8
20/12:20pm 14.7 8.3 9.3 70 2.8 WSW 33 48 18 26 1016.8 1016.8 0.8
20/12:06pm 12.7 4.8 9.2 79 1.8 WSW 41 59 22 32 1016.8 1016.8 0.8
20/12:00pm 16.1 8.7 6.8 54 4.6 WSW 35 59 19 32 1016.7 1016.7 0.0
20/11:30am 16.4 8.8 5.7 49 5.2 WSW 35 52 19 28 1016.6 1016.6 0.0
20/11:01am 16.4 10.6 8.1 58 4.2 WSW 28 52 15 28 1016.4 1016.4 0.0
20/11:00am 16.0 10.5 7.5 57 4.2 WSW 26 52 14 28 1016.4 1016.4 0.0
20/10:34am 14.4 7.5 7.2 62 3.5 SW 33 54 18 29 1016.6 1016.6 0.0
20/10:30am 15.0 7.9 8.0 63 3.5 SW 35 48 19 26 1016.4 1016.4 0.0
20/10:19am 14.4 7.9 9.0 70 2.7 SW 33 52 18 28 1016.4 1016.4 0.0
20/10:04am 15.5 9.5 7.0 57 4.2 W 28 57 15 31 1016.0 1016.0 0.0
20/10:00am 15.0 9.4 7.3 60 3.8 WSW 26 43 14 23 1015.9 1015.9 0.0
20/09:52am 15.6 8.8 7.1 57 4.2 SW 32 50 17 27 1015.9 1015.9 0.0
20/09:30am 14.9 7.3 6.0 55 4.3 WSW 35 50 19 27 1016.0 1016.0 0.0
20/09:06am 14.6 8.7 7.4 62 3.5 WSW 28 48 15 26 1015.7 1015.7 0.0
20/09:00am 14.4 8.5 7.7 64 3.3 WSW 28 41 15 22 1015.6 1015.6 5.8
20/08:31am 14.1 7.5 6.2 59 3.8 WSW 30 52 16 28 1015.5 1015.5 5.8
20/08:30am 14.2 8.4 6.3 59 3.8 WSW 26 48 14 26 1015.5 1015.5 5.8
20/08:00am 11.6 5.8 7.9 78 1.8 SW 28 39 15 21 1015.3 1015.3 5.8
20/07:30am 12.3 6.1 6.1 66 2.9 WSW 28 41 15 22 1014.7 1014.7 5.6
20/07:16am 13.1 6.5 6.2 63 3.3 WSW 30 56 16 30 1014.6 1014.6 5.6
20/07:00am 12.0 6.8 7.3 73 2.3 WSW 24 32 13 17 1014.2 1014.2 5.6
20/06:30am 11.8 7.3 6.9 72 2.3 WSW 20 37 11 20 1013.8 1013.8 5.4
20/06:00am 11.1 6.7 6.5 73 2.2 SW 19 33 10 18 1013.6 1013.6 5.4
20/05:30am 10.6 3.0 6.0 73 2.1 SW 35 57 19 31 1013.6 1013.6 5.4
20/05:00am 11.2 5.8 6.3 72 2.3 SW 24 52 13 28 1013.2 1013.2 5.4
20/04:30am 11.7 4.9 5.3 65 2.9 WSW 30 48 16 26 1013.1 1013.1 5.4
20/04:15am 11.2 3.5 5.3 67 2.7 WSW 35 54 19 29 1013.0 1013.0 5.4
20/04:12am 11.5 3.4 5.4 66 2.8 SW 37 54 20 29 1013.0 1013.0 5.4
20/04:00am 11.4 5.5 5.7 68 2.6 SW 26 33 14 18 1012.8 1012.8 5.2
20/03:30am 11.2 6.7 6.1 71 2.4 WSW 19 30 10 16 1012.7 1012.7 5.2
20/03:00am 11.2 6.3 6.9 75 2.0 WSW 22 32 12 17 1012.9 1012.9 5.2
20/02:30am 11.0 5.9 6.0 71 2.3 W 22 41 12 22 1012.8 1012.8 5.2
20/02:13am 11.7 4.9 5.1 64 3.0 WSW 30 48 16 26 1013.1 1013.1 5.2
20/02:00am 11.2 4.8 5.3 67 2.7 WSW 28 39 15 21 1013.0 1013.0 5.2
20/01:30am 10.6 3.4 5.8 72 2.2 WSW 33 48 18 26 1013.0 1013.0 5.0
20/01:17am 11.7 4.5 5.1 64 3.0 WSW 32 52 17 28 1013.2 1013.2 4.0
20/01:00am 11.9 3.5 3.9 58 3.6 WSW 37 56 20 30 1013.2 1013.2 3.8
20/12:32am 11.7 4.8 4.4 61 3.3 WSW 30 48 16 26 1013.3 1013.3 3.6
20/12:30am 11.7 4.8 4.4 61 3.3 WSW 30 44 16 24 1013.4 1013.4 3.6
20/12:27am 11.7 5.1 4.2 60 3.4 WSW 28 44 15 24 1013.4 1013.4 3.6
20/12:00am 10.3 6.0 5.3 71 2.3 SSW 17 24 9 13 1013.4 1013.4 3.4
 
Date/Time
WST
Temp
°C
App
Temp
°C
Dew
Point
°C
Rel
Hum
%
Delta-T
°C
Wind Press
QNH
hPa
Press
MSL
hPa
Rain since
9am
mm
Dir  Spd
km/h
Gust
km/h
Spd
kts
Gust
kts
19/11:30pm 12.0 5.4 4.0 58 3.6 WSW 28 48 15 26 1013.2 1013.2 3.4
19/11:00pm 11.3 3.2 3.1 57 3.6 WSW 35 63 19 34 1013.6 1013.6 3.4
19/10:52pm 11.5 4.6 4.7 63 3.1 WSW 30 48 16 26 1013.4 1013.4 3.4
19/10:43pm 11.6 5.2 5.0 64 3.0 WSW 28 48 15 26 1013.5 1013.5 3.4
19/10:30pm 10.1 5.7 6.4 78 1.7 WSW 19 26 10 14 1013.5 1013.5 3.4
19/10:00pm 9.8 1.6 4.8 71 2.2 SW 37 56 20 30 1013.9 1013.9 3.4
19/09:48pm 10.7 3.1 4.0 63 3.0 SW 33 57 18 31 1014.0 1014.0 3.2
19/09:30pm 10.0 3.7 5.8 75 1.9 SW 28 37 15 20 1013.6 1013.6 3.2
19/09:17pm 10.0 3.0 6.0 76 1.8 WSW 32 50 17 27 1013.7 1013.7 3.2
19/09:08pm 9.9 5.3 6.3 78 1.7 WSW 20 46 11 25 1013.8 1013.8 3.2
19/09:00pm 10.3 7.0 6.6 78 1.7 WSW 13 20 7 11 1013.1 1013.1 3.0
19/08:30pm 10.2 1.6 4.8 69 2.4 WSW 39 65 21 35 1013.9 1013.9 3.0
19/08:20pm 11.9 4.6 4.6 61 3.3 W 32 50 17 27 1013.2 1013.2 3.0
19/08:00pm 12.2 4.7 4.7 60 3.4 WSW 33 50 18 27 1012.8 1012.8 3.0
19/07:33pm 11.0 4.0 6.0 71 2.3 WSW 32 50 17 27 1012.4 1012.4 3.0
19/07:30pm 12.4 5.1 5.6 63 3.2 WSW 33 50 18 27 1012.4 1012.4 2.4
19/07:15pm 12.5 6.1 5.0 60 3.5 W 28 52 15 28 1012.0 1012.0 2.2
19/07:00pm 11.5 5.9 5.2 65 2.9 W 24 37 13 20 1012.0 1012.0 2.2
19/06:38pm 11.5 2.3 6.2 70 2.5 WSW 44 65 24 35 1012.3 1012.3 2.2
19/06:33pm 11.9 4.0 6.0 67 2.8 W 37 63 20 34 1012.1 1012.1 2.2
19/06:30pm 12.2 5.1 6.5 68 2.7 W 33 61 18 33 1011.9 1011.9 2.2
19/06:28pm 12.1 6.0 6.6 69 2.6 W 28 50 15 27 1011.6 1011.6 2.2
19/06:01pm 12.8 5.2 5.9 63 3.3 W 35 76 19 41 1011.4 1011.4 1.2
19/06:00pm 13.4 6.3 5.6 59 3.7 W 32 48 17 26 1011.2 1011.2 1.2
19/05:30pm 14.4 6.5 4.4 51 4.6 W 35 52 19 28 1011.0 1011.0 1.2
19/05:03pm 14.6 6.4 4.6 51 4.6 W 37 56 20 30 1010.8 1010.8 1.2
19/05:00pm 15.0 6.4 4.4 49 4.9 W 39 56 21 30 1010.7 1010.7 1.2
19/04:30pm 15.7 6.8 3.2 43 5.7 W 39 59 21 32 1010.3 1010.3 1.2
19/04:00pm 16.0 7.8 5.0 48 5.2 W 37 59 20 32 1009.8 1009.8 1.2
19/03:32pm 16.6 7.0 6.4 51 5.0 W 46 65 25 35 1009.8 1009.8 1.2
19/03:30pm 16.3 7.2 5.9 50 5.0 W 43 61 23 33 1009.6 1009.6 1.2
19/03:13pm 16.5 8.1 5.8 49 5.2 WSW 39 57 21 31 1009.6 1009.6 1.2
19/03:00pm 16.2 7.6 6.3 52 4.8 W 41 57 22 31 1009.7 1009.7 1.2
19/02:30pm 15.5 8.3 7.8 60 3.9 W 35 61 19 33 1009.5 1009.5 1.2
19/02:00pm 13.8 5.6 9.6 76 2.2 WSW 43 61 23 33 1009.8 1009.8 1.2
19/01:44pm 15.5 9.9 8.7 64 3.5 W 28 48 15 26 1009.2 1009.2 1.2
19/01:30pm 13.6 7.4 9.3 75 2.2 W 32 43 17 23 1009.4 1009.4 1.0
19/01:15pm 17.2 10.9 7.5 53 4.9 W 30 48 16 26 1009.1 1009.1 0.2
19/01:00pm 16.4 10.4 7.1 54 4.6 W 28 44 15 24 1009.2 1009.2 0.2
19/12:37pm 16.3 9.8 6.7 53 4.7 W 30 54 16 29 1009.4 1009.4 0.0
19/12:30pm 17.3 10.9 5.3 45 5.8 W 28 39 15 21 1009.1 1009.1 0.0
19/12:00pm 16.3 11.4 6.7 53 4.7 W 22 35 12 19 1009.6 1009.6 0.0
19/11:30am 16.9 9.5 6.7 51 5.0 WSW 35 52 19 28 1009.6 1009.6 0.0
19/11:00am 14.4 7.6 7.9 65 3.2 WSW 33 50 18 27 1010.1 1010.1 0.0
19/10:43am 17.2 10.9 7.3 52 5.0 WSW 30 48 16 26 1009.9 1009.9 0.0

Other formats

Comma delimited format used in spreadsheet applications
http://www.bom.gov.au/fwo/IDW60801/IDW60801.94610.axf

JavaScript Object Notation format (JSON) in row-major order
http://www.bom.gov.au/fwo/IDW60801/IDW60801.94610.json

Data quality

Most of these data are generated automatically and are frequently updated. Quality checks on data are not normally performed. It is possible for incorrect values to appear. Refer to information at About Latest Weather Observations and please check the disclaimer before using these data.